createdAt,value
2023-12-08T00:02:20.750Z,101087.53
2023-12-08T00:04:47.449Z,101075.22
2023-12-08T00:07:14.641Z,101066.56
2023-12-08T00:09:41.460Z,101058.69
2023-12-08T00:12:08.162Z,101062.91
2023-12-08T00:14:34.968Z,101043.72
2023-12-08T00:17:01.529Z,101046.34
2023-12-08T00:19:28.236Z,101045.31
2023-12-08T00:21:54.799Z,101036.66
2023-12-08T00:24:21.457Z,101034.81
2023-12-08T00:26:48.164Z,101032.19
2023-12-08T00:29:15.070Z,101032.19
2023-12-08T00:31:42.177Z,101043.53
2023-12-08T00:34:09.171Z,101041.69
2023-12-08T00:36:36.088Z,101039.84
2023-12-08T00:39:02.933Z,101033.81
2023-12-08T00:41:29.837Z,101016.25
2023-12-08T00:43:56.455Z,101001.53
2023-12-08T00:46:23.048Z,100988.16
2023-12-08T00:48:49.865Z,100989.22
2023-12-08T00:51:16.796Z,100976.88
2023-12-08T00:53:43.751Z,100976.31
2023-12-08T00:56:11.530Z,100971.63
2023-12-08T00:58:38.760Z,100961.34
2023-12-08T01:01:06.167Z,100950.06
2023-12-08T01:03:33.111Z,100950.06
2023-12-08T01:05:59.788Z,100950.66
2023-12-08T01:08:26.410Z,100967.44
2023-12-08T01:10:53.279Z,100962.97
2023-12-08T01:13:20.994Z,100963.97
2023-12-08T01:15:48.233Z,100978.72
2023-12-08T01:18:15.052Z,100987.38
2023-12-08T01:20:43.374Z,100983.75
2023-12-08T01:23:10.072Z,100974.84
2023-12-08T01:25:36.776Z,100970.63
2023-12-08T01:28:03.472Z,100958.31
2023-12-08T01:30:30.333Z,100956.69
2023-12-08T01:32:57.285Z,100961.72
2023-12-08T01:35:23.953Z,100958.31
2023-12-08T01:37:50.678Z,100959.88
2023-12-08T01:40:17.426Z,100958.88
2023-12-08T01:42:45.912Z,100969.38
2023-12-08T01:45:12.588Z,100962.28
2023-12-08T01:47:40.984Z,100966.75
2023-12-08T01:50:09.906Z,100978.03
2023-12-08T01:52:37.821Z,100970.16
2023-12-08T01:55:05.305Z,100968.34
2023-12-08T01:57:32.330Z,100973.56
2023-12-08T02:00:01.325Z,100974.41
2023-12-08T02:02:28.483Z,100969.94
2023-12-08T02:04:59.272Z,100974.16
2023-12-08T02:07:27.452Z,100975.75
2023-12-08T02:09:54.749Z,100970.50
2023-12-08T02:12:21.741Z,100964.22
2023-12-08T02:14:52.389Z,100951.09
2023-12-08T02:17:26.421Z,100948.25
2023-12-08T02:19:54.435Z,100945.63
2023-12-08T02:22:24.514Z,100939.59
2023-12-08T02:24:51.902Z,100935.94
2023-12-08T02:27:18.712Z,100934.13
2023-12-08T02:29:45.503Z,100927.03
2023-12-08T02:32:24.050Z,100929.44
2023-12-08T02:34:53.339Z,100915.50
2023-12-08T02:37:21.460Z,100904.00
2023-12-08T02:39:49.843Z,100901.16
2023-12-08T02:42:16.698Z,100889.28
2023-12-08T02:44:43.333Z,100893.50
2023-12-08T02:47:09.950Z,100897.97
2023-12-08T02:49:36.851Z,100890.88
2023-12-08T02:52:03.832Z,100864.84
2023-12-08T02:54:30.706Z,100870.09
2023-12-08T02:56:57.483Z,100867.69
2023-12-08T02:59:24.166Z,100868.19
2023-12-08T03:02:35.306Z,100864.50
2023-12-08T03:05:02.089Z,100856.31
2023-12-08T03:07:29.256Z,100853.69
2023-12-08T03:09:56.189Z,100849.47
2023-12-08T03:12:22.996Z,100850.25
2023-12-08T03:14:49.708Z,100848.09
2023-12-08T03:17:16.955Z,100840.22
2023-12-08T03:19:43.935Z,100831.78
2023-12-08T03:22:13.202Z,100833.63
2023-12-08T03:24:39.923Z,100828.59
2023-12-08T03:27:06.651Z,100832.00
2023-12-08T03:29:33.872Z,100824.13
2023-12-08T03:32:00.676Z,100820.94
2023-12-08T03:34:27.760Z,100822.00
2023-12-08T03:36:54.524Z,100820.16
2023-12-08T03:39:21.502Z,100816.16
2023-12-08T03:41:48.151Z,100817.19
2023-12-08T03:44:16.258Z,100817.19
2023-12-08T03:46:45.677Z,100813.78
2023-12-08T03:49:12.545Z,100811.16
2023-12-08T03:51:39.166Z,100814.78
2023-12-08T03:54:05.846Z,100810.34
2023-12-08T03:56:32.465Z,100808.53
2023-12-08T03:58:59.013Z,100815.81
2023-12-08T04:01:27.458Z,100817.66
2023-12-08T04:03:54.097Z,100814.22
2023-12-08T04:06:21.049Z,100823.69
2023-12-08T04:08:48.173Z,100815.03
2023-12-08T04:11:14.815Z,100825.53
2023-12-08T04:13:42.691Z,100816.84
2023-12-08T04:16:09.637Z,100821.28
2023-12-08T04:18:37.011Z,100829.16
2023-12-08T04:21:03.932Z,100827.59
2023-12-08T04:23:30.480Z,100831.00
2023-12-08T04:25:58.839Z,100832.00
2023-12-08T04:28:26.198Z,100836.25
2023-12-08T04:30:53.032Z,100838.06
2023-12-08T04:33:20.104Z,100837.25
2023-12-08T04:35:46.834Z,100837.03
2023-12-08T04:38:13.735Z,100837.81
2023-12-08T04:40:40.612Z,100838.66
2023-12-08T04:43:07.400Z,100834.41
2023-12-08T04:45:34.024Z,100831.78
2023-12-08T04:48:00.849Z,100821.28
2023-12-08T04:50:27.972Z,100826.53
2023-12-08T04:52:54.615Z,100836.25
2023-12-08T04:55:21.202Z,100823.91
2023-12-08T04:57:48.110Z,100818.09
2023-12-08T05:00:14.998Z,100818.66
2023-12-08T05:02:41.715Z,100817.88
2023-12-08T05:05:08.506Z,100821.06
2023-12-08T05:07:35.300Z,100822.66
2023-12-08T05:10:02.099Z,100827.09
2023-12-08T05:12:28.799Z,100823.69
2023-12-08T05:14:55.447Z,100814.00
2023-12-08T05:17:22.468Z,100799.03
2023-12-08T05:19:49.281Z,100793.00
2023-12-08T05:22:16.157Z,100795.41
2023-12-08T05:24:42.795Z,100803.50
2023-12-08T05:27:09.937Z,100803.06
2023-12-08T05:29:36.771Z,100789.13
2023-12-08T05:32:03.645Z,100791.75
2023-12-08T05:34:30.487Z,100788.31
2023-12-08T05:36:57.720Z,100790.72
2023-12-08T05:39:24.400Z,100788.09
2023-12-08T05:41:51.309Z,100793.91
2023-12-08T05:44:17.928Z,100801.22
2023-12-08T05:46:44.446Z,100807.47
2023-12-08T05:49:11.422Z,100796.53
2023-12-08T05:51:38.380Z,100793.91
2023-12-08T05:54:05.074Z,100792.09
2023-12-08T05:56:32.578Z,100799.97
2023-12-08T05:58:59.202Z,100797.91
2023-12-08T06:01:27.231Z,100803.16
2023-12-08T06:03:53.956Z,100801.31
2023-12-08T06:06:20.872Z,100795.28
2023-12-08T06:08:47.860Z,100804.75
2023-12-08T06:11:14.617Z,100807.38
2023-12-08T06:13:41.519Z,100802.94
2023-12-08T06:16:08.393Z,100814.22
2023-12-08T06:18:35.100Z,100824.47
2023-12-08T06:21:01.848Z,100816.63
2023-12-08T06:23:28.656Z,100817.19
2023-12-08T06:25:55.457Z,100815.34
2023-12-08T06:28:22.177Z,100813.78
2023-12-08T06:30:48.892Z,100813.50
2023-12-08T06:33:15.560Z,100809.88
2023-12-08T06:35:42.305Z,100810.66
2023-12-08T06:38:09.369Z,100814.66
2023-12-08T06:40:36.130Z,100819.13
2023-12-08T06:43:04.410Z,100833.84
2023-12-08T06:45:31.251Z,100826.53
2023-12-08T06:48:00.244Z,100830.97
2023-12-08T06:50:31.805Z,100823.66
2023-12-08T06:52:58.652Z,100814.22
2023-12-08T06:55:25.295Z,100818.41
2023-12-08T06:57:52.180Z,100820.25
2023-12-08T07:00:19.230Z,100810.53
2023-12-08T07:02:46.422Z,100812.16
2023-12-08T07:05:13.188Z,100817.97
2023-12-08T07:07:39.816Z,100815.34
2023-12-08T07:10:07.141Z,100821.38
2023-12-08T07:12:34.308Z,100822.97
2023-12-08T07:15:00.979Z,100827.41
2023-12-08T07:17:28.550Z,100814.88
2023-12-08T07:19:57.584Z,100810.97
2023-12-08T07:22:24.434Z,100824.56
2023-12-08T07:24:52.021Z,100821.47
2023-12-08T07:27:18.710Z,100822.28
2023-12-08T07:29:45.526Z,100828.91
2023-12-08T07:32:12.223Z,100832.31
2023-12-08T07:34:40.231Z,100839.19
2023-12-08T07:39:48.027Z,100844.38
2023-12-08T07:45:16.828Z,100843.66
2023-12-08T07:47:45.774Z,100849.59
2023-12-08T07:50:23.624Z,100849.22
2023-12-08T07:52:53.252Z,100842.56
2023-12-08T07:55:19.973Z,100844.81
2023-12-08T07:57:49.853Z,100839.41
2023-12-08T08:00:16.946Z,100841.88
2023-12-08T08:02:44.577Z,100839.91
2023-12-08T08:05:11.371Z,100846.06
2023-12-08T08:07:38.306Z,100853.78
2023-12-08T08:10:05.491Z,100853.63
2023-12-08T08:12:33.610Z,100854.53
2023-12-08T08:15:00.757Z,100862.50
2023-12-08T08:17:27.561Z,100870.47
2023-12-08T08:19:54.488Z,100868.47
2023-12-08T08:22:30.129Z,100876.44
2023-12-08T08:25:02.762Z,100868.63
2023-12-08T08:27:30.939Z,100876.34
2023-12-08T08:29:58.153Z,100878.53
2023-12-08T08:32:24.943Z,100866.50
2023-12-08T08:34:56.114Z,100864.97
2023-12-08T08:37:26.611Z,100866.06
2023-12-08T08:39:55.719Z,100869.81
2023-12-08T08:42:57.433Z,100870.44
2023-12-08T08:45:25.874Z,100872.84
2023-12-08T08:48:06.530Z,100878.97
2023-12-08T08:50:43.566Z,100873.47
2023-12-08T08:53:15.884Z,100880.88
2023-12-08T08:55:43.237Z,100871.47
2023-12-08T08:58:09.850Z,100875.19
2023-12-08T09:00:36.642Z,100873.91
2023-12-08T09:03:04.700Z,100877.41
2023-12-08T09:05:36.728Z,100884.81
2023-12-08T09:08:07.619Z,100896.94
2023-12-08T09:10:34.336Z,100897.75
2023-12-08T09:13:01.382Z,100901.50
2023-12-08T09:15:29.042Z,100897.25
2023-12-08T09:17:57.499Z,100899.41
2023-12-08T09:20:25.137Z,100896.28
2023-12-08T09:23:00.513Z,100896.28
2023-12-08T09:25:41.196Z,100894.75
2023-12-08T09:28:10.472Z,100904.56
2023-12-08T09:30:37.592Z,100895.88
2023-12-08T09:33:05.992Z,100898.00
2023-12-08T09:35:34.602Z,100897.53
2023-12-08T09:38:01.517Z,100891.47
2023-12-08T09:40:29.173Z,100890.66
2023-12-08T09:43:07.829Z,100895.44
2023-12-08T09:45:35.628Z,100897.84
2023-12-08T09:48:07.630Z,100897.09
2023-12-08T09:50:37.656Z,100903.72
2023-12-08T09:53:09.241Z,100902.19
2023-12-08T09:55:39.553Z,100902.50
2023-12-08T09:58:08.339Z,100898.00
2023-12-08T10:00:43.763Z,100911.19
2023-12-08T10:03:13.957Z,100889.34
2023-12-08T10:05:50.893Z,100889.13
2023-12-08T10:08:39.219Z,100894.16
2023-12-08T10:11:09.724Z,100897.88
2023-12-08T10:13:36.708Z,100898.44
2023-12-08T10:18:46.414Z,100905.53
2023-12-08T10:24:05.816Z,100911.97
2023-12-08T10:26:36.109Z,100906.47
2023-12-08T10:29:02.977Z,100896.72
2023-12-08T10:31:29.817Z,100900.22
2023-12-08T10:34:01.131Z,100902.09
2023-12-08T10:36:28.182Z,100908.16
2023-12-08T10:38:55.033Z,100905.03
2023-12-08T10:41:22.530Z,100918.25
2023-12-08T10:43:54.755Z,100914.63
2023-12-08T10:46:22.684Z,100919.69
2023-12-08T10:48:50.289Z,100905.19
2023-12-08T10:51:19.271Z,100907.06
2023-12-08T10:53:46.477Z,100912.34
2023-12-08T10:56:17.163Z,100911.34
2023-12-08T10:58:46.251Z,100904.75
2023-12-08T11:01:15.940Z,100902.44
2023-12-08T11:03:53.962Z,100918.00
2023-12-08T11:06:31.042Z,100908.00
2023-12-08T11:09:05.037Z,100904.56
2023-12-08T11:11:35.493Z,100900.38
2023-12-08T11:14:07.197Z,100897.47
2023-12-08T11:16:41.917Z,100896.72
2023-12-08T11:19:36.915Z,100888.56
2023-12-08T11:22:18.726Z,100880.19
2023-12-08T11:24:49.412Z,100888.09
2023-12-08T11:27:29.128Z,100886.56
2023-12-08T11:30:47.263Z,100896.88
2023-12-08T11:33:40.465Z,100890.56
2023-12-08T11:36:31.339Z,100892.69
2023-12-08T11:38:57.909Z,100897.47
2023-12-08T11:41:26.534Z,100899.38
2023-12-08T11:43:53.737Z,100897.53
2023-12-08T11:46:20.417Z,100905.22
2023-12-08T11:48:50.048Z,100902.59
2023-12-08T11:51:17.373Z,100911.88
2023-12-08T11:54:00.371Z,100897.06
2023-12-08T11:56:47.524Z,100906.84
2023-12-08T11:59:24.997Z,100911.91
2023-12-08T12:01:52.340Z,100907.94
2023-12-08T12:04:19.329Z,100915.13
2023-12-08T12:06:54.952Z,100908.00
2023-12-08T12:09:22.322Z,100914.59
2023-12-08T12:11:53.160Z,100903.03
2023-12-08T12:14:26.049Z,100908.84
2023-12-08T12:16:53.196Z,100915.44
2023-12-08T12:19:25.562Z,100909.91
2023-12-08T12:21:52.611Z,100913.09
2023-12-08T12:24:19.278Z,100916.84
2023-12-08T12:26:46.259Z,100916.31
2023-12-08T12:29:15.522Z,100921.88
2023-12-08T12:31:44.101Z,100921.91
2023-12-08T12:34:12.390Z,100925.88
2023-12-08T12:36:40.020Z,100926.16
2023-12-08T12:39:07.282Z,100926.16
2023-12-08T12:41:34.384Z,100923.78
2023-12-08T12:44:03.086Z,100926.72
2023-12-08T12:46:32.684Z,100918.28
2023-12-08T12:48:59.962Z,100924.38
2023-12-08T12:51:38.175Z,100928.88
2023-12-08T12:54:05.461Z,100926.53
2023-12-08T12:56:33.890Z,100928.94
2023-12-08T12:59:12.551Z,100935.28
2023-12-08T13:05:47.072Z,100928.69
2023-12-08T13:08:16.988Z,100939.28
2023-12-08T13:10:47.136Z,100940.88
2023-12-08T13:13:52.440Z,100936.13
2023-12-08T13:16:48.182Z,100939.84
2023-12-08T13:20:40.744Z,100945.69
2023-12-08T13:23:11.705Z,100938.53
2023-12-08T13:28:45.054Z,100950.47
2023-12-08T13:31:17.166Z,100959.44
2023-12-08T13:33:59.238Z,100958.94
2023-12-08T13:36:30.717Z,100962.13
2023-12-08T13:41:53.285Z,100963.97
2023-12-08T13:44:21.101Z,100962.41
2023-12-08T13:47:01.395Z,100964.00
2023-12-08T13:49:38.397Z,100975.91
2023-12-08T13:53:08.452Z,100986.25
2023-12-08T13:55:39.303Z,100982.56
2023-12-08T13:58:33.844Z,100989.69
2023-12-08T14:12:13.125Z,100977.28
2023-12-08T14:28:36.193Z,101000.88
2023-12-08T14:34:57.463Z,101002.47
2023-12-08T14:40:45.638Z,101007.22
2023-12-08T14:44:02.668Z,101005.63
2023-12-08T14:46:46.858Z,100998.47
2023-12-08T15:01:52.532Z,101019.69
2023-12-08T15:08:44.877Z,101018.09
2023-12-08T15:11:11.773Z,101026.81
2023-12-08T15:16:31.787Z,101018.34
2023-12-08T15:19:12.594Z,101022.59
2023-12-08T15:21:40.520Z,101026.81
2023-12-08T15:24:10.201Z,101030.53
2023-12-08T15:26:41.689Z,101032.66
2023-12-08T15:29:11.804Z,101031.59
2023-12-08T15:31:40.289Z,101028.69
2023-12-08T15:34:07.599Z,101036.66
2023-12-08T15:36:34.837Z,101044.59
2023-12-08T15:39:01.830Z,101044.34
2023-12-08T15:41:33.276Z,101041.44
2023-12-08T15:43:59.858Z,101042.75
2023-12-08T15:46:26.414Z,101050.97
2023-12-08T15:48:53.326Z,101047.28
2023-12-08T15:51:20.598Z,101045.66
2023-12-08T15:53:47.898Z,101059.16
2023-12-08T15:56:14.885Z,101069.25
2023-12-08T15:58:46.709Z,101067.13
2023-12-08T16:01:21.078Z,101068.47
2023-12-08T16:09:45.601Z,101070.31
2023-12-08T16:12:13.004Z,101075.34
2023-12-08T16:14:42.469Z,101074.28
2023-12-08T16:17:09.304Z,101087.56
2023-12-08T16:19:35.987Z,101092.31
2023-12-08T16:22:02.903Z,101082.25
2023-12-08T16:24:29.743Z,101085.44
2023-12-08T16:26:59.197Z,101080.91
2023-12-08T16:29:26.030Z,101088.84
2023-12-08T16:31:52.736Z,101082.50
2023-12-08T16:34:19.557Z,101093.63
2023-12-08T16:36:46.939Z,101096.56
2023-12-08T16:39:16.568Z,101094.69
2023-12-08T16:41:48.678Z,101094.16
2023-12-08T16:44:15.900Z,101094.97
2023-12-08T16:46:42.758Z,101094.44
2023-12-08T16:49:11.041Z,101099.19
2023-12-08T16:51:38.169Z,101095.22
2023-12-08T16:54:05.310Z,101092.03
2023-12-08T16:56:34.839Z,101095.22
2023-12-08T17:05:11.238Z,101089.91
2023-12-08T17:31:07.021Z,101093.88
2023-12-08T17:33:33.830Z,101086.97
2023-12-08T17:36:00.928Z,101091.75
2023-12-08T17:38:30.452Z,101092.53
2023-12-08T17:40:57.202Z,101095.72
2023-12-08T17:43:24.514Z,101099.47
2023-12-08T17:45:53.949Z,101099.16
2023-12-08T17:48:20.658Z,101102.91
2023-12-08T17:50:48.365Z,101094.69
2023-12-08T17:53:15.003Z,101102.09
2023-12-08T17:55:41.815Z,101102.88
2023-12-08T17:58:08.441Z,101106.59
2023-12-08T18:00:35.302Z,101100.25
2023-12-08T18:03:04.332Z,101095.72
2023-12-08T18:05:31.296Z,101096.00
2023-12-08T18:07:58.016Z,101100.75
2023-12-08T18:10:24.805Z,101097.34
2023-12-08T18:12:51.806Z,101098.63
2023-12-08T18:15:19.034Z,101100.50
2023-12-08T18:17:46.165Z,101100.75
2023-12-08T18:20:14.082Z,101106.63
2023-12-08T18:22:41.485Z,101107.94
2023-12-08T18:25:11.173Z,101115.88
2023-12-08T18:27:52.874Z,101114.31
2023-12-08T18:30:25.333Z,101115.88
2023-12-08T18:32:52.164Z,101110.31
2023-12-08T18:35:19.087Z,101111.63
2023-12-08T18:37:46.536Z,101118.56
2023-12-08T18:40:13.946Z,101122.50
2023-12-08T18:42:40.784Z,101122.25
2023-12-08T18:45:08.238Z,101115.06
2023-12-08T18:47:34.977Z,101119.88
2023-12-08T18:50:02.085Z,101116.44
2023-12-08T18:52:29.336Z,101112.72
2023-12-08T18:54:56.769Z,101115.09
2023-12-08T18:57:23.842Z,101116.44
2023-12-08T18:59:50.654Z,101120.91
2023-12-08T19:02:17.260Z,101122.22
2023-12-08T19:04:44.523Z,101120.38
2023-12-08T19:07:11.175Z,101121.72
2023-12-08T19:09:38.480Z,101122.25
2023-12-08T19:12:05.643Z,101135.25
2023-12-08T19:14:32.715Z,101134.44
2023-12-08T19:16:59.366Z,101120.66
2023-12-08T19:19:26.391Z,101139.22
2023-12-08T19:21:53.563Z,101133.38
2023-12-08T19:24:20.338Z,101131.00
2023-12-08T19:26:47.205Z,101129.69
2023-12-08T19:29:13.860Z,101137.91
2023-12-08T19:31:40.580Z,101133.38
2023-12-08T19:34:07.555Z,101140.81
2023-12-08T19:36:34.290Z,101137.13
2023-12-08T19:39:01.303Z,101138.94
2023-12-08T19:41:28.299Z,101132.59
2023-12-08T19:43:55.873Z,101136.81
2023-12-08T19:46:22.637Z,101132.84
2023-12-08T19:48:49.543Z,101136.03
2023-12-08T19:51:16.273Z,101136.59
2023-12-08T19:53:43.114Z,101136.03
2023-12-08T19:56:10.251Z,101138.97
2023-12-08T19:58:38.301Z,101137.91
2023-12-08T20:01:06.818Z,101151.97
2023-12-08T20:03:33.669Z,101143.47
2023-12-08T20:06:00.695Z,101146.66
2023-12-08T20:08:28.311Z,101147.72
2023-12-08T20:10:57.856Z,101157.28
2023-12-08T20:13:24.704Z,101153.00
2023-12-08T20:15:51.429Z,101153.56
2023-12-08T20:18:18.212Z,101153.28
2023-12-08T20:20:44.972Z,101154.84
2023-12-08T20:23:14.837Z,101152.75
2023-12-08T20:25:41.616Z,101151.16
2023-12-08T20:28:09.598Z,101148.50
2023-12-08T20:30:36.737Z,101154.59
2023-12-08T20:33:03.708Z,101158.31
2023-12-08T20:35:30.692Z,101157.50
2023-12-08T20:37:57.529Z,101152.50
2023-12-08T20:40:24.265Z,101150.63
2023-12-08T20:42:51.128Z,101153.53
2023-12-08T20:45:17.972Z,101152.50
2023-12-08T20:47:45.401Z,101159.63
2023-12-08T20:50:12.900Z,101156.97
2023-12-08T20:52:39.992Z,101160.44
2023-12-08T20:55:06.943Z,101160.44
2023-12-08T20:57:33.785Z,101166.53
2023-12-08T21:00:00.697Z,101170.22
2023-12-08T21:02:27.619Z,101159.38
2023-12-08T21:04:54.446Z,101170.50
2023-12-08T21:07:21.230Z,101167.59
2023-12-08T21:09:48.031Z,101169.19
2023-12-08T21:12:14.759Z,101176.06
2023-12-08T21:14:41.451Z,101181.03
2023-12-08T21:17:08.186Z,101179.97
2023-12-08T21:19:35.140Z,101182.63
2023-12-08T21:22:04.014Z,101182.63
2023-12-08T21:24:31.203Z,101172.78
2023-12-08T21:26:58.721Z,101168.81
2023-12-08T21:29:25.669Z,101165.59
2023-12-08T21:31:53.128Z,101166.63
2023-12-08T21:34:20.188Z,101173.78
2023-12-08T21:36:46.991Z,101178.78
2023-12-08T21:39:13.956Z,101173.47
2023-12-08T21:41:40.919Z,101177.44
2023-12-08T21:44:08.025Z,101170.78
2023-12-08T21:46:35.612Z,101165.47
2023-12-08T21:49:25.728Z,101154.59
2023-12-08T21:51:52.678Z,101168.59
2023-12-08T21:54:21.218Z,101171.50
2023-12-08T21:56:48.087Z,101178.91
2023-12-08T21:59:15.125Z,101174.13
2023-12-08T22:08:56.464Z,101181.75
2023-12-08T22:11:23.348Z,101175.66
2023-12-08T22:13:50.116Z,101178.56
2023-12-08T22:16:16.799Z,101184.38
2023-12-08T22:18:43.869Z,101180.38
2023-12-08T22:21:13.611Z,101176.13
2023-12-08T22:23:41.121Z,101177.44
2023-12-08T22:26:09.852Z,101182.97
2023-12-08T22:28:37.098Z,101189.09
2023-12-08T22:31:24.434Z,101183.50
2023-12-08T22:33:51.893Z,101174.78
2023-12-08T22:36:18.866Z,101178.47
2023-12-08T22:38:45.775Z,101181.63
2023-12-08T22:41:12.448Z,101186.38
2023-12-08T22:43:39.882Z,101192.69
2023-12-08T22:46:10.062Z,101190.06
2023-12-08T22:48:40.444Z,101195.34
2023-12-08T22:51:14.432Z,101192.97
2023-12-08T22:53:44.817Z,101188.72
2023-12-08T22:56:12.528Z,101196.41
2023-12-08T23:01:40.068Z,101205.13
2023-12-08T23:04:12.697Z,101192.69
2023-12-08T23:06:40.158Z,101205.69
2023-12-08T23:11:49.275Z,101210.19
2023-12-08T23:14:16.023Z,101202.25
2023-12-08T23:16:51.001Z,101210.97
2023-12-08T23:19:19.591Z,101220.53
2023-12-08T23:21:46.491Z,101217.06
2023-12-08T23:24:13.212Z,101207.53
2023-12-08T23:26:45.716Z,101218.66
2023-12-08T23:37:25.834Z,101226.59
2023-12-08T23:42:33.678Z,101225.25
2023-12-08T23:45:00.954Z,101226.06
2023-12-08T23:47:28.074Z,101219.44
2023-12-08T23:49:54.920Z,101221.25
2023-12-08T23:52:22.237Z,101221.81
2023-12-08T23:54:48.988Z,101229.47
